createdAt,value
2022-10-29T00:00:01.174Z,12.60
2022-10-29T00:05:11.894Z,12.40
2022-10-29T00:10:16.768Z,12.30
2022-10-29T00:15:20.191Z,12.10
2022-10-29T00:20:24.069Z,12.00
2022-10-29T00:25:28.932Z,12.10
2022-10-29T00:30:32.472Z,12.00
2022-10-29T00:35:35.830Z,12.00
2022-10-29T00:40:41.207Z,12.00
2022-10-29T00:45:49.874Z,12.20
2022-10-29T00:50:54.472Z,12.20
2022-10-29T00:56:00.431Z,12.20
2022-10-29T01:01:04.013Z,12.10
2022-10-29T01:06:08.484Z,12.20
2022-10-29T01:11:24.003Z,12.00
2022-10-29T01:16:33.473Z,12.00
2022-10-29T01:21:43.641Z,11.90
2022-10-29T01:27:23.452Z,11.80
2022-10-29T01:32:34.437Z,11.90
2022-10-29T01:37:47.859Z,11.80
2022-10-29T01:42:55.914Z,11.70
2022-10-29T01:48:05.873Z,11.60
2022-10-29T01:53:09.969Z,11.50
2022-10-29T01:58:14.603Z,11.50
2022-10-29T02:03:28.792Z,11.40
2022-10-29T02:08:40.186Z,11.30
2022-10-29T02:13:54.880Z,11.30
2022-10-29T02:19:00.739Z,11.40
2022-10-29T02:24:04.068Z,11.40
2022-10-29T02:29:07.388Z,11.50
2022-10-29T02:34:12.365Z,11.50
2022-10-29T02:39:15.717Z,11.40
2022-10-29T02:44:19.082Z,11.40
2022-10-29T02:49:23.875Z,11.50
2022-10-29T02:54:27.241Z,11.50
2022-10-29T02:59:30.539Z,14.20
2022-10-29T03:04:35.354Z,11.50
2022-10-29T03:09:38.645Z,11.50
2022-10-29T03:14:42.005Z,11.40
2022-10-29T03:19:46.693Z,11.30
2022-10-29T03:24:50.027Z,11.40
2022-10-29T03:29:53.331Z,11.20
2022-10-29T03:34:59.912Z,11.20
2022-10-29T03:40:03.834Z,11.10
2022-10-29T03:45:07.848Z,11.00
2022-10-29T03:50:12.906Z,11.00
2022-10-29T03:55:16.586Z,11.10
2022-10-29T04:00:20.058Z,11.10
2022-10-29T04:05:24.791Z,11.20
2022-10-29T04:10:28.150Z,11.10
2022-10-29T04:15:37.151Z,11.00
2022-10-29T04:21:36.705Z,10.90
2022-10-29T04:27:01.702Z,10.60
2022-10-29T04:31:29.310Z,10.70
2022-10-29T04:36:34.060Z,10.70
2022-10-29T04:41:37.473Z,10.90
2022-10-29T04:46:40.784Z,10.70
2022-10-29T04:51:45.491Z,10.60
2022-10-29T04:56:48.875Z,10.60
2022-10-29T05:01:52.270Z,10.60
2022-10-29T05:06:57.089Z,10.60
2022-10-29T05:12:00.496Z,10.60
2022-10-29T05:17:03.909Z,10.70
2022-10-29T05:22:08.575Z,10.90
2022-10-29T05:27:12.150Z,10.70
2022-10-29T05:32:15.300Z,10.60
2022-10-29T05:37:19.823Z,10.70
2022-10-29T05:42:22.907Z,10.70
2022-10-29T05:47:26.000Z,11.00
2022-10-29T05:52:30.577Z,11.00
2022-10-29T05:57:34.197Z,11.00
2022-10-29T06:02:37.666Z,11.10
2022-10-29T06:07:43.729Z,11.10
2022-10-29T06:12:47.599Z,11.10
2022-10-29T06:17:51.416Z,11.00
2022-10-29T06:23:00.072Z,11.10
2022-10-29T06:28:05.124Z,11.10
2022-10-29T06:33:09.096Z,11.00
2022-10-29T06:38:14.148Z,10.90
2022-10-29T06:43:17.483Z,10.80
2022-10-29T06:48:22.512Z,10.90
2022-10-29T06:53:28.500Z,11.20
2022-10-29T06:58:31.877Z,11.20
2022-10-29T07:03:35.368Z,11.40
2022-10-29T07:08:40.018Z,11.30
2022-10-29T07:13:43.373Z,11.30
2022-10-29T07:18:46.782Z,11.40
2022-10-29T07:23:51.613Z,11.50
2022-10-29T07:28:58.480Z,11.60
2022-10-29T07:34:01.896Z,11.60
2022-10-29T07:39:07.477Z,11.90
2022-10-29T07:44:11.180Z,12.00
2022-10-29T07:49:14.569Z,11.90
2022-10-29T07:54:19.244Z,11.90
2022-10-29T07:59:22.626Z,12.20
2022-10-29T08:04:25.999Z,12.30
2022-10-29T08:09:30.749Z,12.30
2022-10-29T08:14:34.108Z,12.30
2022-10-29T08:19:37.436Z,12.50
2022-10-29T08:24:42.106Z,12.60
2022-10-29T08:29:45.380Z,12.60
2022-10-29T08:34:48.779Z,12.70
2022-10-29T08:39:53.532Z,12.60
2022-10-29T08:45:26.002Z,12.70
2022-10-29T08:50:31.983Z,12.80
2022-10-29T08:55:39.077Z,13.00
2022-10-29T09:00:44.122Z,13.30
2022-10-29T09:05:54.833Z,13.20
2022-10-29T09:11:08.235Z,13.20
2022-10-29T09:16:32.318Z,13.70
2022-10-29T09:21:43.916Z,13.60
2022-10-29T09:26:58.768Z,13.60
2022-10-29T09:32:06.343Z,14.80
2022-10-29T09:37:17.076Z,15.80
2022-10-29T09:42:35.447Z,16.30
2022-10-29T09:47:44.466Z,16.60
2022-10-29T09:52:50.681Z,16.20
2022-10-29T09:57:57.060Z,15.80
2022-10-29T10:03:06.045Z,15.90
2022-10-29T10:08:12.194Z,16.60
2022-10-29T10:13:18.985Z,17.60
2022-10-29T10:18:25.699Z,19.30
2022-10-29T10:23:31.223Z,18.60
2022-10-29T10:28:35.927Z,20.70
2022-10-29T10:33:50.413Z,20.80
2022-10-29T10:38:56.490Z,20.60
2022-10-29T10:44:04.791Z,21.90
2022-10-29T10:49:14.797Z,21.10
2022-10-29T10:54:35.086Z,21.30
2022-10-29T10:59:50.809Z,21.50
2022-10-29T11:05:03.588Z,20.90
2022-10-29T11:10:14.044Z,20.20
2022-10-29T11:15:28.319Z,21.50
2022-10-29T11:20:36.018Z,22.10
2022-10-29T11:25:45.526Z,22.20
2022-10-29T11:30:56.057Z,21.00
2022-10-29T11:36:04.423Z,20.40
2022-10-29T11:41:23.310Z,20.90
2022-10-29T11:46:35.158Z,21.70
2022-10-29T11:51:52.906Z,21.50
2022-10-29T11:57:00.202Z,22.10
2022-10-29T12:02:20.105Z,22.60
2022-10-29T12:07:33.273Z,23.20
2022-10-29T12:12:45.470Z,23.50
2022-10-29T12:18:00.303Z,21.40
2022-10-29T12:23:15.486Z,23.80
2022-10-29T12:28:24.074Z,22.80
2022-10-29T12:33:34.245Z,22.80
2022-10-29T12:38:41.966Z,23.20
2022-10-29T12:43:46.558Z,24.30
2022-10-29T12:48:59.392Z,24.70
2022-10-29T12:54:22.731Z,24.20
2022-10-29T12:59:33.632Z,22.60
2022-10-29T13:04:38.402Z,22.50
2022-10-29T13:09:44.317Z,23.00
2022-10-29T13:14:56.645Z,22.60
2022-10-29T13:20:05.176Z,21.70
2022-10-29T13:25:44.763Z,21.30
2022-10-29T13:30:49.641Z,20.80
2022-10-29T13:35:57.908Z,20.40
2022-10-29T13:41:17.221Z,20.00
2022-10-29T13:46:56.012Z,20.40
2022-10-29T13:52:04.100Z,20.70
2022-10-29T13:57:15.644Z,20.10
2022-10-29T14:02:36.899Z,19.70
2022-10-29T14:07:50.595Z,19.60
2022-10-29T14:12:59.104Z,20.20
2022-10-29T14:18:18.109Z,20.50
2022-10-29T14:23:22.829Z,24.80
2022-10-29T14:28:27.366Z,21.10
2022-10-29T14:33:32.639Z,21.20
2022-10-29T14:38:41.709Z,21.30
2022-10-29T14:43:48.009Z,20.90
2022-10-29T14:49:02.543Z,20.90
2022-10-29T14:54:09.287Z,21.10
2022-10-29T14:59:19.496Z,21.10
2022-10-29T15:04:26.252Z,21.10
2022-10-29T15:09:31.245Z,20.90
2022-10-29T15:14:40.571Z,20.10
2022-10-29T15:19:46.589Z,19.50
2022-10-29T15:24:53.284Z,18.80
2022-10-29T15:29:57.167Z,18.20
2022-10-29T15:35:01.233Z,17.90
2022-10-29T15:40:12.349Z,17.10
2022-10-29T15:45:22.105Z,15.50
2022-10-29T15:50:29.064Z,16.90
2022-10-29T15:55:35.894Z,16.80
2022-10-29T16:00:39.449Z,16.60
2022-10-29T16:05:43.575Z,16.40
2022-10-29T16:10:48.287Z,16.40
2022-10-29T16:15:51.739Z,16.10
2022-10-29T16:20:57.916Z,16.20
2022-10-29T16:26:02.660Z,16.10
2022-10-29T16:31:15.343Z,15.90
2022-10-29T16:36:19.065Z,15.80
2022-10-29T16:41:23.953Z,15.70
2022-10-29T16:46:27.810Z,15.50
2022-10-29T16:51:31.175Z,15.50
2022-10-29T16:56:35.882Z,15.50
2022-10-29T17:01:39.312Z,15.60
2022-10-29T17:06:42.616Z,15.60
2022-10-29T17:11:47.499Z,15.40
2022-10-29T17:16:51.040Z,15.30
2022-10-29T17:21:54.378Z,15.40
2022-10-29T17:26:59.834Z,15.40
2022-10-29T17:37:07.757Z,15.10
2022-10-29T17:42:12.443Z,15.00
2022-10-29T17:47:16.456Z,15.00
2022-10-29T17:52:19.875Z,14.90
2022-10-29T17:57:24.913Z,14.80
2022-10-29T18:02:28.541Z,14.40
2022-10-29T18:07:32.088Z,14.50
2022-10-29T18:12:37.034Z,14.40
2022-10-29T18:17:40.815Z,14.20
2022-10-29T18:22:44.255Z,14.20
2022-10-29T18:27:48.990Z,14.20
2022-10-29T18:32:52.478Z,14.10
2022-10-29T18:37:56.340Z,14.00
2022-10-29T18:43:01.439Z,13.90
2022-10-29T18:48:05.474Z,13.90
2022-10-29T18:53:08.945Z,14.00
2022-10-29T18:58:13.742Z,14.00
2022-10-29T19:03:17.681Z,13.90
2022-10-29T19:08:21.307Z,13.90
2022-10-29T19:13:26.324Z,14.20
2022-10-29T19:18:30.373Z,13.80
2022-10-29T19:23:34.197Z,13.80
2022-10-29T19:28:40.310Z,13.90
2022-10-29T19:33:44.099Z,13.90
2022-10-29T19:38:47.734Z,13.90
2022-10-29T19:43:52.489Z,13.00
2022-10-29T19:48:57.685Z,13.60
2022-10-29T19:54:02.472Z,13.60
2022-10-29T19:59:07.375Z,13.60
2022-10-29T20:04:10.992Z,13.60
2022-10-29T20:09:14.567Z,13.60
2022-10-29T20:14:19.633Z,13.60
2022-10-29T20:19:23.012Z,13.60
2022-10-29T20:24:26.423Z,13.70
2022-10-29T20:29:31.281Z,13.70
2022-10-29T20:34:34.684Z,13.70
2022-10-29T20:39:38.148Z,13.70
2022-10-29T20:44:43.363Z,13.60
2022-10-29T20:49:46.878Z,13.60
2022-10-29T20:54:50.254Z,13.60
2022-10-29T20:59:55.058Z,13.70
2022-10-29T21:04:58.381Z,13.60
2022-10-29T21:10:01.781Z,13.50
2022-10-29T21:15:07.475Z,13.40
2022-10-29T21:20:11.507Z,13.40
2022-10-29T21:25:15.101Z,13.40
2022-10-29T21:30:19.868Z,13.30
2022-10-29T21:35:23.412Z,13.20
2022-10-29T21:40:26.787Z,13.10
2022-10-29T21:45:31.524Z,13.10
2022-10-29T21:50:35.157Z,13.10
2022-10-29T21:55:38.597Z,13.10
2022-10-29T22:00:43.545Z,13.20
2022-10-29T22:05:47.063Z,13.10
2022-10-29T22:10:50.495Z,13.20
2022-10-29T22:15:55.409Z,13.30
2022-10-29T22:21:07.115Z,13.30
2022-10-29T22:26:10.519Z,13.20
2022-10-29T22:31:15.938Z,13.30
2022-10-29T22:36:22.041Z,13.30
2022-10-29T22:41:26.937Z,13.30
2022-10-29T22:46:31.976Z,13.30
2022-10-29T22:51:36.091Z,13.20
2022-10-29T22:56:40.805Z,13.20
2022-10-29T23:01:45.956Z,13.20
2022-10-29T23:06:49.515Z,13.40
2022-10-29T23:11:52.795Z,13.40
2022-10-29T23:16:57.466Z,15.40
2022-10-29T23:22:00.944Z,13.20
2022-10-29T23:27:04.358Z,13.20
2022-10-29T23:32:09.100Z,13.20
2022-10-29T23:37:12.456Z,13.20
2022-10-29T23:42:15.789Z,13.00
2022-10-29T23:47:20.605Z,13.00
2022-10-29T23:52:23.945Z,13.00
2022-10-29T23:57:27.296Z,12.80
